Time;durP1;ratioP1;P1;durP2;ratioP2;P2;SDS_P1;SDS_P2;PMS_P1;PMS_P2;Temp;Humidity;BMP_temperature;BMP_pressure;BME280_temperature;BME280_humidity;BME280_pressure;Samples;Min_cycle;Max_cycle;Signal;HPM_P1;HPM_P2
2023/12/04 00:00:40;;;;;;;5.18;2.17;;;;;;;7.13;100.00;98796.72;4972672;28;20033;-87
2023/12/04 00:03:05;;;;;;;2.60;1.77;;;;;;;7.18;100.00;98797.22;4972621;28;20054;-87
2023/12/04 00:05:30;;;;;;;6.35;1.95;;;;;;;7.16;100.00;98785.41;4972712;28;20034;-87
2023/12/04 00:07:56;;;;;;;7.20;1.60;;;;;;;7.10;100.00;98786.66;4972807;28;20029;-87
2023/12/04 00:10:21;;;;;;;6.30;1.63;;;;;;;7.13;100.00;98773.63;4972693;28;20031;-88
2023/12/04 00:12:47;;;;;;;4.18;1.65;;;;;;;7.10;100.00;98765.34;4969951;28;20486;-87
2023/12/04 00:15:12;;;;;;;5.65;1.95;;;;;;;7.07;100.00;98763.78;4972324;28;20031;-88
2023/12/04 00:17:39;;;;;;;3.72;1.40;;;;;;;7.04;100.00;98753.72;4971285;28;20444;-88
2023/12/04 00:20:06;;;;;;;2.42;1.23;;;;;;;7.05;100.00;98752.81;4972615;28;20047;-88
2023/12/04 00:24:20;;;;;;;2.97;1.50;;;;;;;7.05;100.00;98747.69;5069060;28;20407;-87
2023/12/04 00:26:46;;;;;;;3.85;1.30;;;;;;;7.12;100.00;98740.38;5069106;28;20044;-87
2023/12/04 00:29:11;;;;;;;3.63;1.10;;;;;;;7.13;100.00;98736.88;5067635;28;20040;-87
2023/12/04 00:31:36;;;;;;;3.60;1.15;;;;;;;7.18;100.00;98735.63;5068993;28;20025;-87
2023/12/04 00:34:02;;;;;;;3.70;1.65;;;;;;;7.05;100.00;98727.19;5069009;28;20029;-87
2023/12/04 00:36:27;;;;;;;6.15;1.92;;;;;;;7.09;100.00;98718.31;5068816;28;20071;-87
2023/12/04 00:38:52;;;;;;;3.80;1.10;;;;;;;7.03;100.00;98721.31;5069080;28;20101;-87
2023/12/04 00:41:18;;;;;;;2.17;1.00;;;;;;;6.98;100.00;98706.25;5068865;28;20025;-87
2023/12/04 00:43:43;;;;;;;3.72;1.30;;;;;;;7.01;100.00;98712.91;5066791;28;20025;-87
2023/12/04 00:46:09;;;;;;;7.43;1.15;;;;;;;6.99;100.00;98701.94;5068756;28;20427;-87
2023/12/04 00:48:34;;;;;;;1.20;0.80;;;;;;;6.91;100.00;98693.97;5068725;28;20039;-87
2023/12/04 00:50:59;;;;;;;7.05;0.98;;;;;;;6.94;100.00;98686.88;5068697;28;20056;-87
2023/12/04 00:53:24;;;;;;;1.27;0.77;;;;;;;6.83;100.00;98682.50;5068738;28;20057;-87
2023/12/04 00:55:50;;;;;;;2.28;0.82;;;;;;;6.85;100.00;98670.41;5068460;28;20033;-87
2023/12/04 00:58:15;;;;;;;3.83;1.10;;;;;;;6.78;100.00;98660.66;5053921;28;20044;-87
2023/12/04 01:00:41;;;;;;;5.20;1.10;;;;;;;6.70;100.00;98658.63;5048433;28;20052;-87
2023/12/04 01:03:06;;;;;;;6.93;1.25;;;;;;;6.72;100.00;98643.97;5048508;28;20033;-86
2023/12/04 01:05:31;;;;;;;2.75;1.35;;;;;;;6.66;100.00;98654.69;5048169;28;20022;-86
2023/12/04 01:07:57;;;;;;;2.35;1.50;;;;;;;6.73;100.00;98630.25;5048493;28;20532;-86
2023/12/04 01:10:22;;;;;;;4.53;1.30;;;;;;;6.76;100.00;98624.91;5047103;28;20329;-86
2023/12/04 01:12:48;;;;;;;2.72;1.58;;;;;;;6.70;100.00;98614.25;5046515;28;20033;-87
2023/12/04 01:15:13;;;;;;;3.05;1.25;;;;;;;6.63;100.00;98601.03;5047604;28;20537;-86
2023/12/04 01:17:39;;;;;;;4.25;1.75;;;;;;;6.64;100.00;98592.44;5046707;28;20036;-87
2023/12/04 01:20:05;;;;;;;2.72;1.42;;;;;;;6.73;100.00;98584.09;5048194;28;20112;-87
2023/12/04 01:22:30;;;;;;;3.15;1.30;;;;;;;6.72;100.00;98577.31;5046771;28;20468;-87
2023/12/04 01:24:55;;;;;;;2.33;1.60;;;;;;;6.75;100.00;98576.28;5048139;28;20036;-87
2023/12/04 01:27:21;;;;;;;2.47;1.55;;;;;;;6.72;100.00;98572.19;5048073;28;20525;-87
2023/12/04 01:29:46;;;;;;;5.95;2.20;;;;;;;6.69;100.00;98558.78;5059159;28;20032;-87
2023/12/04 01:32:11;;;;;;;2.80;1.50;;;;;;;6.72;100.00;98551.69;5067905;28;20025;-87
2023/12/04 01:34:37;;;;;;;2.30;1.48;;;;;;;6.76;100.00;98547.97;5060519;28;20070;-87
2023/12/04 01:37:02;;;;;;;5.85;2.08;;;;;;;6.74;100.00;98544.69;5054644;28;20060;-87
2023/12/04 01:39:28;;;;;;;1.67;1.42;;;;;;;6.72;100.00;98531.16;5054723;28;20032;-87
2023/12/04 01:41:53;;;;;;;8.02;2.13;;;;;;;6.62;100.00;98530.19;5053247;28;20549;-87
2023/12/04 01:44:19;;;;;;;6.28;1.70;;;;;;;6.65;100.00;98537.66;5052488;28;20491;-87
2023/12/04 01:46:44;;;;;;;4.90;1.60;;;;;;;6.71;100.00;98519.28;5054488;28;20490;-87
2023/12/04 01:49:10;;;;;;;6.10;1.40;;;;;;;6.83;100.00;98520.97;5054534;28;20017;-87
2023/12/04 01:51:35;;;;;;;2.38;1.50;;;;;;;6.76;100.00;98518.97;5054309;28;20025;-87
2023/12/04 01:54:03;;;;;;;3.25;1.33;;;;;;;6.82;100.00;98509.06;5053123;28;20033;-86
2023/12/04 01:56:29;;;;;;;10.55;1.60;;;;;;;6.79;100.00;98511.84;5054453;28;20028;-87
2023/12/04 01:58:55;;;;;;;2.33;1.25;;;;;;;6.74;100.00;98508.00;5044023;28;20025;-87
2023/12/04 02:01:21;;;;;;;2.30;1.10;;;;;;;6.73;100.00;98506.34;5034091;28;20094;-86
2023/12/04 02:03:46;;;;;;;5.35;1.13;;;;;;;6.77;100.00;98513.69;5034048;28;20025;-86
2023/12/04 02:06:12;;;;;;;4.30;1.08;;;;;;;6.69;100.00;98503.19;5034462;28;20471;-87
2023/12/04 02:08:40;;;;;;;5.68;1.38;;;;;;;6.80;100.00;98495.56;5034478;28;20021;-87
2023/12/04 02:11:05;;;;;;;12.60;1.90;;;;;;;6.77;100.00;98495.75;5032692;28;20117;-87
2023/12/04 02:13:31;;;;;;;4.88;1.48;;;;;;;6.78;100.00;98488.88;5041356;28;20104;-86
2023/12/04 02:16:01;;;;;;;6.72;1.60;;;;;;;6.82;100.00;98503.94;5053668;28;20025;-86
2023/12/04 02:18:26;;;;;;;8.93;1.02;;;;;;;6.75;100.00;98492.47;5053709;28;20459;-86
2023/12/04 02:20:53;;;;;;;3.88;1.30;;;;;;;6.80;100.00;98493.00;5052376;28;20029;-87
2023/12/04 02:23:18;;;;;;;28.77;1.83;;;;;;;6.80;100.00;98504.97;5051938;28;20025;-87
2023/12/04 02:25:43;;;;;;;5.70;1.25;;;;;;;6.83;100.00;98489.38;5034429;28;20502;-87
2023/12/04 02:28:13;;;;;;;7.22;1.30;;;;;;;6.74;100.00;98497.75;5033775;28;20025;-87
2023/12/04 02:30:43;;;;;;;7.80;1.33;;;;;;;6.84;100.00;98481.56;5033950;28;20096;-87
2023/12/04 02:33:11;;;;;;;7.88;1.40;;;;;;;6.76;100.00;98472.81;5053799;28;20044;-87
2023/12/04 02:35:39;;;;;;;9.90;1.63;;;;;;;6.79;100.00;98475.94;5053282;28;20021;-87
2023/12/04 02:38:05;;;;;;;5.45;1.55;;;;;;;6.84;100.00;98473.88;5053315;28;20028;-86
2023/12/04 02:40:30;;;;;;;3.95;1.70;;;;;;;6.85;100.00;98480.66;5053772;28;20044;-87
2023/12/04 02:42:56;;;;;;;11.63;2.35;;;;;;;6.88;100.00;98468.50;5053165;28;20471;-87
2023/12/04 02:45:21;;;;;;;7.00;1.63;;;;;;;6.95;100.00;98454.28;5051766;28;20071;-88
2023/12/04 02:47:46;;;;;;;8.77;2.13;;;;;;;7.01;100.00;98456.41;5050820;28;20082;-88
2023/12/04 02:50:12;;;;;;;2.40;1.65;;;;;;;6.94;100.00;98457.81;5053207;28;20017;-88
2023/12/04 02:52:37;;;;;;;2.78;1.55;;;;;;;6.95;100.00;98454.28;5053054;28;20033;-88
2023/12/04 02:55:03;;;;;;;15.70;1.98;;;;;;;6.96;100.00;98436.25;5053154;28;20033;-88
2023/12/04 02:57:29;;;;;;;5.43;1.58;;;;;;;6.95;100.00;98444.03;5053043;28;20495;-88
2023/12/04 02:59:54;;;;;;;6.72;2.22;;;;;;;6.82;100.00;98429.56;5052930;28;20417;-88
2023/12/04 03:02:19;;;;;;;9.75;1.88;;;;;;;6.91;100.00;98433.22;5034189;28;20025;-89
2023/12/04 03:04:45;;;;;;;7.38;2.33;;;;;;;6.96;100.00;98430.31;5032899;28;20100;-88
2023/12/04 03:07:10;;;;;;;8.70;1.95;;;;;;;7.00;100.00;98431.72;5032967;28;20041;-89
2023/12/04 03:09:36;;;;;;;7.05;2.03;;;;;;;6.88;100.00;98422.34;5032877;28;20017;-89
2023/12/04 03:12:01;;;;;;;9.02;2.35;;;;;;;6.98;100.00;98428.44;5032810;28;20025;-89
2023/12/04 03:14:27;;;;;;;12.45;2.15;;;;;;;6.94;100.00;98421.91;5032609;28;20067;-89
2023/12/04 03:16:52;;;;;;;12.57;2.63;;;;;;;6.97;100.00;98431.94;5048366;28;20366;-88
2023/12/04 03:19:17;;;;;;;9.95;2.13;;;;;;;7.00;100.00;98421.47;5052512;28;20067;-88
2023/12/04 03:21:42;;;;;;;11.93;2.80;;;;;;;7.01;100.00;98417.94;5052658;28;20059;-88
2023/12/04 03:24:08;;;;;;;11.80;2.65;;;;;;;7.00;100.00;98411.19;5041853;28;20037;-89
2023/12/04 03:26:34;;;;;;;3.15;2.03;;;;;;;7.00;100.00;98416.31;5032726;28;20030;-88
2023/12/04 03:29:00;;;;;;;7.30;2.13;;;;;;;7.00;100.00;98416.31;5032595;28;20029;-88
2023/12/04 03:31:25;;;;;;;11.52;2.10;;;;;;;7.02;100.00;98409.31;5032388;28;20026;-88
2023/12/04 03:33:50;;;;;;;6.85;2.13;;;;;;;7.06;100.00;98410.72;5039007;28;20031;-88
2023/12/04 03:36:16;;;;;;;11.85;2.22;;;;;;;7.04;100.00;98403.13;5039256;28;20067;-88
2023/12/04 03:38:41;;;;;;;8.43;1.75;;;;;;;7.07;100.00;98399.50;5032335;28;20076;-88
2023/12/04 03:41:16;;;;;;;4.00;2.03;;;;;;;7.10;100.00;98395.94;5032430;28;20048;-88
2023/12/04 03:43:41;;;;;;;8.20;1.95;;;;;;;7.13;100.00;98396.50;5032089;28;20044;-88
2023/12/04 03:46:07;;;;;;;7.47;2.05;;;;;;;7.11;100.00;98395.78;5032214;28;20451;-88
2023/12/04 03:48:32;;;;;;;5.90;2.13;;;;;;;7.17;100.00;98403.03;5032220;28;20026;-89
2023/12/04 03:50:59;;;;;;;6.85;2.13;;;;;;;7.24;100.00;98393.94;5034935;28;20028;-88
2023/12/04 03:53:24;;;;;;;4.53;1.70;;;;;;;7.25;100.00;98397.31;5031037;28;20121;-88
2023/12/04 03:55:50;;;;;;;6.05;1.90;;;;;;;7.25;100.00;98387.88;5032206;28;20112;-88
2023/12/04 03:58:15;;;;;;;7.82;1.80;;;;;;;7.25;100.00;98390.44;5030612;28;20029;-88
2023/12/04 04:00:41;;;;;;;6.20;2.35;;;;;;;7.24;100.00;98393.94;5031987;28;20356;-88
2023/12/04 04:03:06;;;;;;;5.50;1.50;;;;;;;7.24;100.00;98388.81;5032604;28;20075;-87
2023/12/04 04:05:34;;;;;;;7.88;1.67;;;;;;;7.20;100.00;98389.97;5036604;28;20029;-88
2023/12/04 04:07:59;;;;;;;6.60;1.77;;;;;;;7.24;100.00;98388.81;5051821;28;20032;-88
2023/12/04 04:10:25;;;;;;;5.22;1.58;;;;;;;7.20;100.00;98379.72;5052195;28;20406;-88
2023/12/04 04:12:50;;;;;;;7.20;1.83;;;;;;;7.20;100.00;98379.72;5051827;28;20041;-88
2023/12/04 04:15:15;;;;;;;4.80;1.35;;;;;;;7.23;100.00;98379.47;5051991;28;20025;-89
2023/12/04 04:17:41;;;;;;;4.55;1.35;;;;;;;7.21;100.00;98385.66;5051853;28;20021;-88
2023/12/04 04:20:08;;;;;;;4.00;1.33;;;;;;;7.19;100.00;98375.50;5050912;28;20111;-88
2023/12/04 04:22:37;;;;;;;9.38;1.45;;;;;;;7.21;100.00;98368.50;5051567;28;20068;-88
2023/12/04 04:25:06;;;;;;;3.40;1.40;;;;;;;7.23;100.00;98376.91;5051509;28;20391;-89
2023/12/04 04:27:32;;;;;;;4.65;1.63;;;;;;;7.18;100.00;98373.88;5051644;28;20119;-88
2023/12/04 04:29:57;;;;;;;4.25;1.67;;;;;;;7.20;100.00;98360.94;5051762;28;20112;-88
2023/12/04 04:32:22;;;;;;;4.80;1.50;;;;;;;7.24;100.00;98364.88;5051657;28;20116;-88
2023/12/04 04:34:48;;;;;;;3.95;1.30;;;;;;;7.21;100.00;98362.56;5049698;28;20026;-89
2023/12/04 04:37:13;;;;;;;3.20;1.10;;;;;;;7.21;100.00;98357.44;5051660;28;20022;-88
2023/12/04 04:39:39;;;;;;;6.22;1.60;;;;;;;7.23;100.00;98356.38;5051535;28;20032;-88
2023/12/04 04:42:05;;;;;;;4.28;1.40;;;;;;;7.24;100.00;98365.72;5051476;28;20040;-88
2023/12/04 04:44:30;;;;;;;4.35;1.48;;;;;;;7.23;100.00;98356.38;5051511;28;20025;-89
2023/12/04 04:46:56;;;;;;;5.45;1.98;;;;;;;7.16;100.00;98350.06;5051680;28;20021;-88
2023/12/04 04:49:21;;;;;;;2.38;1.08;;;;;;;7.25;100.00;98357.06;5049343;28;20500;-88
2023/12/04 04:51:46;;;;;;;9.48;1.80;;;;;;;7.21;100.00;98353.09;5051636;28;20387;-88
2023/12/04 04:54:11;;;;;;;4.05;1.23;;;;;;;7.22;100.00;98352.19;5042421;28;20381;-88
2023/12/04 04:56:37;;;;;;;4.85;1.50;;;;;;;7.25;100.00;98343.44;5031599;28;20392;-88
2023/12/04 04:59:02;;;;;;;6.05;1.10;;;;;;;7.26;100.00;98343.31;5031608;28;20361;-88
2023/12/04 05:01:27;;;;;;;5.68;1.52;;;;;;;7.30;100.00;98343.91;5031673;28;20057;-88
2023/12/04 05:03:53;;;;;;;2.92;1.40;;;;;;;7.33;100.00;98342.84;5031269;28;20041;-89
2023/12/04 05:06:19;;;;;;;2.55;1.15;;;;;;;7.33;100.00;98335.13;5031601;28;20022;-89
2023/12/04 05:08:44;;;;;;;8.23;1.48;;;;;;;7.35;100.00;98331.53;5043254;28;20033;-89
2023/12/04 05:11:10;;;;;;;4.68;1.85;;;;;;;7.36;100.00;98327.19;5053804;28;20032;-89
2023/12/04 05:13:35;;;;;;;2.35;1.30;;;;;;;7.38;100.00;98327.91;5054959;28;20129;-88
2023/12/04 05:16:00;;;;;;;4.18;1.30;;;;;;;7.39;100.00;98329.50;5055237;28;20032;-88
2023/12/04 05:18:26;;;;;;;4.55;1.48;;;;;;;7.34;100.00;98329.06;5053621;28;20024;-88
2023/12/04 05:20:51;;;;;;;6.60;1.30;;;;;;;7.40;100.00;98333.72;5055021;28;20025;-88
2023/12/04 05:23:16;;;;;;;4.18;1.38;;;;;;;7.39;100.00;98321.81;5041810;28;20198;-89
2023/12/04 05:25:42;;;;;;;2.47;1.40;;;;;;;7.39;100.00;98325.22;5034895;28;20025;-89
2023/12/04 05:28:08;;;;;;;6.90;1.67;;;;;;;7.43;100.00;98320.66;5034738;28;20026;-88
2023/12/04 05:30:34;;;;;;;5.60;1.25;;;;;;;7.43;100.00;98330.91;5034912;28;20189;-88
2023/12/04 05:32:59;;;;;;;4.15;1.20;;;;;;;7.44;100.00;98327.44;5034752;28;20030;-88
2023/12/04 05:35:24;;;;;;;8.35;2.38;;;;;;;7.45;100.00;98323.91;5034714;28;20468;-88
2023/12/04 05:37:50;;;;;;;9.20;1.77;;;;;;;7.44;100.00;98323.09;5034815;28;20495;-88
2023/12/04 05:40:15;;;;;;;4.30;1.50;;;;;;;7.42;100.00;98324.16;5036383;28;20033;-88
2023/12/04 05:42:41;;;;;;;3.10;1.10;;;;;;;7.44;100.00;98322.31;5054332;28;20080;-88
2023/12/04 05:45:07;;;;;;;2.75;1.00;;;;;;;7.42;100.00;98324.16;5054563;28;20028;-88
2023/12/04 05:47:33;;;;;;;6.88;1.73;;;;;;;7.44;100.00;98317.16;5054743;28;20044;-88
2023/12/04 05:49:58;;;;;;;5.40;1.58;;;;;;;7.46;100.00;98310.13;5054581;28;20661;-88
2023/12/04 05:52:24;;;;;;;4.88;1.50;;;;;;;7.45;100.00;98316.22;5043525;28;20057;-88
2023/12/04 05:54:49;;;;;;;3.17;1.40;;;;;;;7.41;100.00;98317.38;5034410;28;20067;-88
2023/12/04 05:57:16;;;;;;;3.95;1.40;;;;;;;7.38;100.00;98312.50;5034570;28;20476;-88
2023/12/04 05:59:41;;;;;;;3.42;1.25;;;;;;;7.41;100.00;98312.25;5034428;28;20037;-88
2023/12/04 06:02:07;;;;;;;4.40;1.10;;;;;;;7.40;100.00;98308.06;5032110;28;20021;-88
2023/12/04 06:04:32;;;;;;;2.22;1.08;;;;;;;7.36;100.00;98304.09;5032898;28;20025;-88
2023/12/04 06:06:57;;;;;;;4.20;2.20;;;;;;;7.34;100.00;98305.97;5034234;28;20030;-88
2023/12/04 06:09:23;;;;;;;4.47;1.20;;;;;;;7.38;100.00;98305.59;5033790;28;20022;-87
2023/12/04 06:11:48;;;;;;;2.97;1.20;;;;;;;7.40;100.00;98303.75;5053707;28;20021;-88
2023/12/04 06:14:13;;;;;;;4.65;1.15;;;;;;;7.35;100.00;98300.72;5053700;28;20108;-88
2023/12/04 06:16:39;;;;;;;4.45;1.40;;;;;;;7.34;100.00;98305.97;5053863;28;20112;-88
2023/12/04 06:19:04;;;;;;;2.63;1.10;;;;;;;7.36;100.00;98304.09;5053867;28;20021;-88
2023/12/04 06:21:30;;;;;;;1.90;1.58;;;;;;;7.37;100.00;98305.75;5053661;28;20036;-88
2023/12/04 06:23:56;;;;;;;3.75;0.98;;;;;;;7.42;100.00;98303.63;5053248;28;20029;-88
2023/12/04 06:26:22;;;;;;;9.30;1.55;;;;;;;7.45;100.00;98306.75;5052394;28;20029;-88
2023/12/04 06:28:47;;;;;;;5.10;1.52;;;;;;;7.41;100.00;98310.53;5053601;28;20375;-88
2023/12/04 06:31:13;;;;;;;4.40;1.05;;;;;;;7.39;100.00;98308.97;5053576;28;20029;-88
2023/12/04 06:33:39;;;;;;;7.55;1.20;;;;;;;7.38;100.00;98307.38;5053334;28;20382;-88
2023/12/04 06:36:06;;;;;;;5.53;1.08;;;;;;;7.46;100.00;98305.00;5053301;28;20075;-88
2023/12/04 06:38:35;;;;;;;3.13;1.00;;;;;;;7.47;100.00;98314.34;5053456;28;20025;-88
2023/12/04 06:41:01;;;;;;;6.22;1.02;;;;;;;7.47;100.00;98299.75;5051422;28;20021;-88
2023/12/04 06:43:27;;;;;;;11.70;2.42;;;;;;;7.54;100.00;98305.22;5052959;28;20025;-88
2023/12/04 06:45:56;;;;;;;4.15;1.17;;;;;;;7.55;100.00;98309.41;5053100;28;20059;-88
2023/12/04 06:48:22;;;;;;;3.10;0.65;;;;;;;7.58;100.00;98308.34;5053044;28;20016;-88
2023/12/04 06:50:47;;;;;;;3.92;0.85;;;;;;;7.57;100.00;98304.97;5053683;28;20534;-88
2023/12/04 06:53:13;;;;;;;4.18;1.20;;;;;;;7.55;100.00;98311.19;5053152;28;20032;-89
2023/12/04 06:55:38;;;;;;;4.05;0.75;;;;;;;7.67;100.00;98298.16;5051778;28;20052;-88
2023/12/04 06:58:04;;;;;;;4.72;1.10;;;;;;;7.70;100.00;98297.91;5053153;28;20391;-88
2023/12/04 07:00:30;;;;;;;3.05;1.45;;;;;;;7.74;100.00;98292.56;5053085;28;20062;-88
2023/12/04 07:02:55;;;;;;;3.10;1.00;;;;;;;7.67;100.00;98293.03;5052880;28;20033;-88
2023/12/04 07:05:21;;;;;;;4.20;0.98;;;;;;;7.67;100.00;98300.75;5052652;28;20037;-87
2023/12/04 07:07:46;;;;;;;3.88;1.00;;;;;;;7.67;100.00;98294.78;5052974;28;20028;-88
2023/12/04 07:10:14;;;;;;;4.68;1.00;;;;;;;7.67;100.00;98298.16;5051522;28;20033;-88
2023/12/04 07:12:43;;;;;;;3.60;0.90;;;;;;;7.69;100.00;98301.44;5052961;28;20029;-88
2023/12/04 07:15:09;;;;;;;3.65;1.00;;;;;;;7.74;100.00;98295.13;5052620;28;20099;-88
2023/12/04 07:17:35;;;;;;;5.32;1.23;;;;;;;7.78;100.00;98296.50;5052570;28;20107;-87
2023/12/04 07:20:01;;;;;;;8.43;1.35;;;;;;;7.82;100.00;98290.19;5052590;28;20020;-88
2023/12/04 07:22:26;;;;;;;4.85;1.40;;;;;;;7.83;100.00;98291.84;5052466;28;20035;-88
2023/12/04 07:24:52;;;;;;;11.15;1.70;;;;;;;7.85;100.00;98289.94;5051246;28;20376;-88
2023/12/04 07:27:17;;;;;;;7.20;1.88;;;;;;;7.85;100.00;98290.75;5052953;28;20020;-87
2023/12/04 07:29:43;;;;;;;11.57;1.90;;;;;;;7.82;100.00;98279.91;5051285;28;20025;-88
2023/12/04 07:32:08;;;;;;;12.77;2.67;;;;;;;7.90;100.00;98287.81;5052070;28;20033;-87
2023/12/04 07:34:33;;;;;;;8.68;1.85;;;;;;;7.93;100.00;98296.09;5052630;28;20024;-89
2023/12/04 07:36:59;;;;;;;13.73;1.55;;;;;;;7.92;100.00;98298.78;5052463;28;20029;-88
2023/12/04 07:39:24;;;;;;;12.27;2.08;;;;;;;7.90;100.00;98287.81;5051246;28;20029;-88
2023/12/04 07:41:49;;;;;;;5.95;1.75;;;;;;;8.06;100.00;98303.59;5043596;28;20112;-88
2023/12/04 07:44:15;;;;;;;10.77;2.05;;;;;;;8.00;100.00;98300.72;5031997;28;20039;-88
2023/12/04 07:46:40;;;;;;;11.52;2.63;;;;;;;7.97;100.00;98295.84;5032566;28;20029;-88
2023/12/04 07:49:06;;;;;;;12.45;2.22;;;;;;;8.05;100.00;98301.19;5032088;28;20017;-87
2023/12/04 07:51:32;;;;;;;10.70;3.03;;;;;;;7.99;100.00;98299.09;5032405;28;20044;-87
2023/12/04 07:53:57;;;;;;;12.77;2.95;;;;;;;8.03;100.00;98303.88;5032082;28;20029;-87
2023/12/04 07:56:23;;;;;;;18.33;4.50;;;;;;;7.96;100.00;98297.59;5037908;28;20029;-87
2023/12/04 07:58:48;;;;;;;11.27;4.03;;;;;;;8.05;100.00;98302.00;5050940;28;20447;-87
2023/12/04 08:01:14;;;;;;;7.60;3.92;;;;;;;7.97;100.00;98304.34;5051772;28;20374;-87
2023/12/04 08:03:40;;;;;;;15.95;4.72;;;;;;;8.03;100.00;98303.06;5051634;28;20036;-87
2023/12/04 08:06:05;;;;;;;12.02;3.75;;;;;;;7.98;100.00;98300.84;5051856;28;20383;-87
2023/12/04 08:08:31;;;;;;;16.05;4.25;;;;;;;8.04;100.00;98297.78;5051722;28;20025;-87
2023/12/04 08:10:57;;;;;;;17.27;4.25;;;;;;;8.06;100.00;98302.81;5050506;28;20118;-87
2023/12/04 08:13:22;;;;;;;17.30;4.45;;;;;;;7.99;100.00;98304.22;5051909;28;20107;-87
2023/12/04 08:15:48;;;;;;;11.48;4.03;;;;;;;8.05;100.00;98312.25;5051652;28;20436;-87
2023/12/04 08:18:13;;;;;;;22.75;4.68;;;;;;;8.11;100.00;98310.94;5051851;28;20017;-87
2023/12/04 08:20:38;;;;;;;13.70;4.03;;;;;;;8.10;100.00;98310.13;5051853;28;20036;-86
2023/12/04 08:23:04;;;;;;;22.08;3.95;;;;;;;8.12;100.00;98310.00;5051493;28;20490;-86
2023/12/04 08:25:29;;;;;;;20.58;4.00;;;;;;;8.07;100.00;98305.25;5050754;28;20498;-87
2023/12/04 08:27:55;;;;;;;19.05;4.43;;;;;;;8.13;100.00;98302.16;5051715;28;20506;-86
2023/12/04 08:30:20;;;;;;;17.67;3.67;;;;;;;8.08;100.00;98304.31;5052003;28;20029;-86
2023/12/04 08:32:45;;;;;;;29.75;4.05;;;;;;;8.07;100.00;98306.97;5051736;28;20506;-86
2023/12/04 08:35:11;;;;;;;13.25;3.70;;;;;;;8.07;100.00;98305.25;5049913;28;20049;-86
2023/12/04 08:37:36;;;;;;;15.65;3.67;;;;;;;8.02;100.00;98309.97;5032798;28;20079;-86
2023/12/04 08:40:02;;;;;;;24.90;4.85;;;;;;;8.00;100.00;98301.56;5032379;28;20029;-86
2023/12/04 08:42:28;;;;;;;17.63;4.25;;;;;;;8.07;100.00;98304.41;5051488;28;20020;-85
2023/12/04 08:44:53;;;;;;;23.13;4.95;;;;;;;8.03;100.00;98303.88;5052033;28;20021;-88
2023/12/04 08:47:19;;;;;;;23.92;4.47;;;;;;;8.10;100.00;98307.56;5055381;28;20075;-87
2023/12/04 08:49:44;;;;;;;14.45;3.72;;;;;;;8.06;100.00;98303.59;5054905;28;20447;-87
2023/12/04 08:52:10;;;;;;;19.52;4.10;;;;;;;8.10;100.00;98306.75;5055274;28;20387;-88
2023/12/04 08:54:39;;;;;;;10.07;3.30;;;;;;;8.12;100.00;98313.41;5054692;28;20079;-86
2023/12/04 08:57:05;;;;;;;8.75;3.00;;;;;;;8.12;100.00;98308.25;5035382;28;20033;-86
2023/12/04 08:59:30;;;;;;;20.73;3.50;;;;;;;8.03;100.00;98306.44;5035357;28;20021;-87
2023/12/04 09:01:55;;;;;;;10.15;3.70;;;;;;;7.97;100.00;98301.78;5035433;28;20033;-87
2023/12/04 09:04:21;;;;;;;10.02;3.20;;;;;;;7.88;100.00;98307.69;5034447;28;20037;-87
2023/12/04 09:06:47;;;;;;;14.25;3.33;;;;;;;7.89;100.00;98301.59;5035258;28;20061;-87
2023/12/04 09:09:13;;;;;;;11.68;3.83;;;;;;;7.82;100.00;98300.44;5039543;28;20657;-87
2023/12/04 09:11:43;;;;;;;13.45;4.45;;;;;;;7.86;100.00;98301.84;5054869;28;20025;-87
2023/12/04 09:14:09;;;;;;;16.77;4.88;;;;;;;7.80;100.00;98302.31;5054761;28;20116;-87
2023/12/04 09:16:34;;;;;;;13.95;4.43;;;;;;;7.84;100.00;98304.53;5040257;28;20030;-88
2023/12/04 09:18:59;;;;;;;13.20;4.22;;;;;;;7.82;100.00;98301.25;5034276;28;20039;-87
2023/12/04 09:21:26;;;;;;;13.48;4.65;;;;;;;7.76;100.00;98306.09;5037830;28;20104;-87
2023/12/04 09:23:51;;;;;;;13.40;4.07;;;;;;;7.72;100.00;98301.19;5035311;28;20041;-88
2023/12/04 09:26:17;;;;;;;14.75;4.25;;;;;;;7.70;100.00;98310.75;5047328;28;20055;-87
2023/12/04 09:28:42;;;;;;;11.50;4.40;;;;;;;7.78;100.00;98317.88;5051560;28;20489;-87
2023/12/04 09:31:10;;;;;;;18.63;5.20;;;;;;;7.76;100.00;98308.66;5050616;28;20036;-88
2023/12/04 09:33:36;;;;;;;13.73;4.75;;;;;;;7.81;100.00;98309.09;5037621;28;20021;-87
2023/12/04 09:36:03;;;;;;;10.38;4.38;;;;;;;7.90;100.00;98313.47;5034001;28;20041;-87
2023/12/04 09:38:29;;;;;;;9.57;4.68;;;;;;;7.87;100.00;98324.81;5035551;28;20033;-88
2023/12/04 09:41:02;;;;;;;10.50;4.57;;;;;;;7.86;100.00;98319.81;5034860;28;20025;-87
2023/12/04 09:43:31;;;;;;;16.50;4.53;;;;;;;7.82;100.00;98328.69;5034529;28;20395;-87
2023/12/04 09:45:57;;;;;;;8.48;4.43;;;;;;;7.85;100.00;98325.88;5040135;28;20025;-88
2023/12/04 09:48:25;;;;;;;16.05;4.60;;;;;;;7.88;100.00;98320.53;5033647;28;20033;-88
2023/12/04 09:50:51;;;;;;;6.00;4.03;;;;;;;7.92;100.00;98316.75;5035056;28;20034;-88
2023/12/04 09:53:17;;;;;;;10.25;4.05;;;;;;;7.91;100.00;98325.41;5034924;28;20060;-89
2023/12/04 09:55:43;;;;;;;13.57;4.82;;;;;;;7.86;100.00;98323.19;5037201;28;20381;-88
2023/12/04 09:58:11;;;;;;;11.13;4.03;;;;;;;7.88;100.00;98320.53;5049224;28;20054;-88
2023/12/04 10:00:37;;;;;;;14.35;4.10;;;;;;;7.98;100.00;98323.16;5041912;28;20036;-88
2023/12/04 10:03:03;;;;;;;22.67;4.10;;;;;;;7.87;100.00;98329.16;5033639;28;20017;-90
2023/12/04 10:05:29;;;;;;;27.15;4.00;;;;;;;7.74;100.00;98318.25;5032038;28;20025;-90
2023/12/04 10:07:54;;;;;;;24.83;3.30;;;;;;;7.88;100.00;98326.47;5037024;28;20086;-90
2023/12/04 10:10:20;;;;;;;11.73;2.55;;;;;;;7.89;100.00;98322.13;5043467;28;20029;-89
2023/12/04 10:12:45;;;;;;;7.55;2.88;;;;;;;7.87;100.00;98329.16;5052152;28;20025;-91
2023/12/04 10:15:12;;;;;;;6.80;2.83;;;;;;;7.93;100.00;98336.38;5034915;28;20029;-89
2023/12/04 10:17:43;;;;;;;21.17;3.55;;;;;;;7.86;100.00;98325.78;5033959;28;20033;-90
2023/12/04 10:20:12;;;;;;;6.97;3.90;;;;;;;7.87;100.00;98335.09;5033645;28;20064;-89
2023/12/04 10:22:55;;;;;;;9.00;2.78;;;;;;;7.81;100.00;98324.53;5053666;28;20036;-88
2023/12/04 10:25:21;;;;;;;3.75;2.60;;;;;;;7.82;100.00;98326.13;5053556;28;20501;-89
2023/12/04 10:27:47;;;;;;;5.50;2.92;;;;;;;7.81;100.00;98330.47;5053740;28;20099;-89
2023/12/04 10:30:28;;;;;;;6.07;3.05;;;;;;;7.97;100.00;98324.09;5053570;28;20100;-89
2023/12/04 10:32:55;;;;;;;7.55;3.28;;;;;;;7.93;100.00;98319.22;5052128;28;20025;-88
2023/12/04 10:35:22;;;;;;;12.30;3.47;;;;;;;7.82;100.00;98321.81;5051728;28;20453;-89
2023/12/04 10:37:48;;;;;;;8.25;3.70;;;;;;;7.82;100.00;98321.81;5049727;28;20027;-89
2023/12/04 10:40:23;;;;;;;13.70;3.05;;;;;;;7.81;100.00;98315.06;5033435;28;20034;-89
2023/12/04 10:42:48;;;;;;;6.43;1.85;;;;;;;7.83;100.00;98312.38;5031953;28;20400;-88
2023/12/04 10:45:13;;;;;;;3.42;2.03;;;;;;;7.81;100.00;98321.94;5033295;28;20018;-88
2023/12/04 10:47:39;;;;;;;10.23;2.67;;;;;;;7.81;100.00;98315.06;5036448;28;20491;-88
2023/12/04 10:50:07;;;;;;;5.38;2.65;;;;;;;7.91;100.00;98312.56;5032819;28;20021;-88
2023/12/04 10:52:33;;;;;;;55.00;7.97;;;;;;;7.91;100.00;98322.84;5052289;28;20395;-89
2023/12/04 10:54:59;;;;;;;11.65;3.42;;;;;;;7.89;100.00;98317.00;5051875;28;20533;-89
2023/12/04 10:57:33;;;;;;;4.80;2.85;;;;;;;7.85;100.00;98315.59;5052900;28;20111;-89
2023/12/04 11:00:03;;;;;;;4.45;3.08;;;;;;;7.86;100.00;98317.25;5053106;28;20021;-89
2023/12/04 11:02:32;;;;;;;3.60;2.90;;;;;;;7.96;100.00;98323.28;5053071;28;20025;-89
2023/12/04 11:05:13;;;;;;;3.90;2.80;;;;;;;7.95;100.00;98316.53;5051363;28;20047;-89
2023/12/04 11:07:43;;;;;;;4.15;2.75;;;;;;;7.92;100.00;98320.16;5031977;28;20087;-89
2023/12/04 11:10:11;;;;;;;9.13;4.05;;;;;;;7.88;100.00;98310.25;5033035;28;20041;-89
2023/12/04 11:12:43;;;;;;;6.32;3.60;;;;;;;7.93;100.00;98308.94;5032895;28;20081;-89
2023/12/04 11:15:14;;;;;;;4.65;3.15;;;;;;;7.95;100.00;98311.38;5031445;28;20026;-89
2023/12/04 11:17:43;;;;;;;5.22;3.65;;;;;;;7.87;100.00;98313.75;5034711;28;20171;-89
2023/12/04 11:20:13;;;;;;;5.32;4.13;;;;;;;7.94;100.00;98309.75;5037046;28;20029;-90
2023/12/04 11:22:40;;;;;;;4.57;3.50;;;;;;;7.95;100.00;98306.25;5038896;28;20037;-89
2023/12/04 11:25:07;;;;;;;9.65;4.20;;;;;;;7.94;100.00;98315.69;5037812;28;20386;-89
2023/12/04 11:27:34;;;;;;;12.10;4.45;;;;;;;7.98;100.00;98302.63;5038413;28;20017;-89